Time;durP1;ratioP1;P1;durP2;ratioP2;P2;SDS_P1;SDS_P2;PMS_P1;PMS_P2;Temp;Humidity;BMP_temperature;BMP_pressure;BME280_temperature;BME280_humidity;BME280_pressure;Samples;Min_cycle;Max_cycle;Signal;HPM_P1;HPM_P2
2022/09/11 00:00:15;;;;;;;48.15;35.70;;;;;;;11.72;100.00;101647.88;5095406;28;20031;-43
2022/09/11 00:02:40;;;;;;;44.80;34.63;;;;;;;11.66;100.00;101650.25;5095357;28;20031;-43
2022/09/11 00:05:06;;;;;;;37.45;30.08;;;;;;;11.53;100.00;101657.50;5094468;28;20023;-45
2022/09/11 00:07:31;;;;;;;38.97;27.48;;;;;;;11.50;100.00;101649.66;5095527;28;20024;-43
2022/09/11 00:09:56;;;;;;;36.33;27.98;;;;;;;11.47;100.00;101648.66;5095371;28;20034;-43
2022/09/11 00:12:22;;;;;;;44.42;31.88;;;;;;;11.52;100.00;101644.53;5094364;28;20078;-44
2022/09/11 00:14:47;;;;;;;42.92;31.80;;;;;;;11.49;100.00;101640.13;5095405;28;20107;-45
2022/09/11 00:17:16;;;;;;;57.55;36.53;;;;;;;11.56;100.00;101637.81;5095107;28;20031;-43
2022/09/11 00:19:41;;;;;;;49.45;35.72;;;;;;;11.40;100.00;101651.78;5094326;28;20028;-43
2022/09/11 00:22:06;;;;;;;66.13;38.88;;;;;;;11.49;100.00;101650.47;5095238;28;20369;-43
2022/09/11 00:24:32;;;;;;;52.58;34.92;;;;;;;11.40;100.00;101650.13;5095290;28;20046;-44
2022/09/11 00:26:57;;;;;;;62.45;40.55;;;;;;;11.51;100.00;101640.19;5094262;28;20060;-43
2022/09/11 00:29:22;;;;;;;71.13;41.78;;;;;;;11.53;100.00;101649.75;5094748;28;20497;-46
2022/09/11 00:31:48;;;;;;;70.65;44.17;;;;;;;11.57;100.00;101655.03;5094857;28;20111;-44
2022/09/11 00:34:13;;;;;;;72.00;43.47;;;;;;;11.53;100.00;101649.75;5093914;28;20090;-43
2022/09/11 00:36:40;;;;;;;79.15;43.88;;;;;;;11.57;100.00;101648.19;5094964;28;20027;-45
2022/09/11 00:39:06;;;;;;;75.87;43.40;;;;;;;11.57;100.00;101650.75;5094388;28;20077;-44
2022/09/11 00:41:34;;;;;;;68.50;43.10;;;;;;;11.53;100.00;101654.91;5094617;28;20028;-45
2022/09/11 00:44:15;;;;;;;76.80;45.03;;;;;;;11.55;100.00;101656.69;5094516;28;20479;-44
2022/09/11 00:46:45;;;;;;;61.03;40.60;;;;;;;11.45;100.00;101656.34;5094181;28;20031;-44
2022/09/11 00:49:37;;;;;;;69.15;43.13;;;;;;;11.47;100.00;101662.41;5093733;28;20051;-43
2022/09/11 00:52:22;;;;;;;56.38;37.50;;;;;;;11.43;100.00;101662.25;5094556;28;20085;-44
2022/09/11 00:54:53;;;;;;;89.70;48.97;;;;;;;11.52;100.00;101658.31;5093717;28;20028;-44
2022/09/11 00:57:22;;;;;;;69.75;41.42;;;;;;;11.38;100.00;101661.19;5094104;28;20035;-43
2022/09/11 00:59:51;;;;;;;82.05;46.50;;;;;;;11.46;100.00;101667.53;5094647;28;20024;-46
2022/09/11 01:02:19;;;;;;;89.03;47.35;;;;;;;11.46;100.00;101662.38;5093321;28;20024;-44
2022/09/11 01:04:45;;;;;;;87.10;49.08;;;;;;;11.41;100.00;101669.91;5094366;28;20027;-44
2022/09/11 01:07:13;;;;;;;78.15;47.22;;;;;;;11.45;100.00;101666.66;5094122;28;20387;-42
2022/09/11 01:09:38;;;;;;;86.68;47.55;;;;;;;11.47;100.00;101677.03;5093831;28;20028;-45
2022/09/11 01:12:08;;;;;;;102.80;52.17;;;;;;;11.50;100.00;101670.31;5093947;28;20028;-44
2022/09/11 01:14:37;;;;;;;101.88;54.80;;;;;;;11.52;100.00;101671.22;5093652;28;20469;-44
2022/09/11 01:17:33;;;;;;;102.93;54.80;;;;;;;11.53;100.00;101679.88;5093760;28;20028;-42
2022/09/11 01:20:24;;;;;;;99.97;54.15;;;;;;;11.50;100.00;101682.31;5093870;28;20034;-43
2022/09/11 01:23:14;;;;;;;110.75;58.30;;;;;;;11.60;100.00;101683.56;5093107;28;20379;-43
2022/09/11 01:25:58;;;;;;;92.95;49.88;;;;;;;11.48;100.00;101677.09;5093775;28;20076;-46
2022/09/11 01:28:34;;;;;;;82.68;48.65;;;;;;;11.46;100.00;101677.84;5092982;28;20491;-43
2022/09/11 01:31:06;;;;;;;98.78;53.03;;;;;;;11.50;100.00;101679.72;5093758;28;20537;-44
2022/09/11 01:33:47;;;;;;;81.80;48.70;;;;;;;11.42;100.00;101676.84;5093921;28;20054;-45
2022/09/11 01:36:20;;;;;;;89.15;48.92;;;;;;;11.43;100.00;101677.75;5092826;28;20759;-46
2022/09/11 01:38:55;;;;;;;101.88;53.67;;;;;;;11.49;100.00;101683.13;5093619;28;20032;-47
2022/09/11 01:41:55;;;;;;;101.90;54.15;;;;;;;11.48;100.00;101683.97;5093555;28;20038;-43
2022/09/11 01:44:28;;;;;;;85.07;48.70;;;;;;;11.42;100.00;101688.88;5090491;28;20047;-46
2022/09/11 01:46:54;;;;;;;94.22;51.95;;;;;;;11.51;100.00;101692.69;5093615;28;20028;-43
2022/09/11 01:49:27;;;;;;;95.95;50.88;;;;;;;11.41;100.00;101694.84;5093152;28;20046;-44
2022/09/11 01:51:57;;;;;;;91.22;51.88;;;;;;;11.41;100.00;101690.56;5093416;28;20027;-44
2022/09/11 01:54:28;;;;;;;102.30;54.47;;;;;;;11.38;100.00;101693.03;5093317;28;20047;-45
2022/09/11 01:57:00;;;;;;;73.72;44.10;;;;;;;11.25;100.00;101690.78;5092930;28;20032;-43
2022/09/11 01:59:34;;;;;;;39.63;29.17;;;;;;;11.02;100.00;101695.88;5093647;28;20028;-43
2022/09/11 02:02:05;;;;;;;41.25;30.80;;;;;;;10.90;100.00;101695.34;5093282;28;20030;-44
2022/09/11 02:04:45;;;;;;;58.20;37.30;;;;;;;10.89;100.00;101691.03;5092414;28;20435;-43
2022/09/11 02:07:15;;;;;;;57.03;36.53;;;;;;;10.84;100.00;101689.13;5093200;28;20134;-43
2022/09/11 02:09:46;;;;;;;56.90;38.55;;;;;;;10.91;100.00;101686.81;5093133;28;20035;-44
2022/09/11 02:12:16;;;;;;;61.13;39.35;;;;;;;10.81;100.00;101686.44;5092159;28;20028;-43
2022/09/11 02:14:46;;;;;;;62.42;40.10;;;;;;;10.80;100.00;101678.63;5093620;28;20081;-43
2022/09/11 02:17:16;;;;;;;83.85;45.10;;;;;;;10.78;100.00;101683.75;5093099;28;20035;-44
2022/09/11 02:19:42;;;;;;;81.90;46.50;;;;;;;10.89;100.00;101688.47;5092472;28;20032;-44
2022/09/11 02:22:07;;;;;;;96.55;49.75;;;;;;;10.89;100.00;101693.63;5092940;28;20020;-43
2022/09/11 02:24:33;;;;;;;92.80;49.58;;;;;;;10.91;100.00;101695.44;5092675;28;20107;-43
2022/09/11 02:27:05;;;;;;;89.53;49.05;;;;;;;10.90;100.00;101700.50;5092644;28;20103;-48
2022/09/11 02:29:31;;;;;;;85.38;50.15;;;;;;;10.94;100.00;101702.44;5092956;28;20031;-43
2022/09/11 02:31:59;;;;;;;111.88;58.13;;;;;;;10.99;100.00;101711.25;5092550;28;20032;-47
2022/09/11 02:34:27;;;;;;;108.80;57.85;;;;;;;11.00;100.00;101708.72;5092488;28;20035;-42
2022/09/11 02:37:23;;;;;;;96.65;54.33;;;;;;;10.98;100.00;101705.19;5092783;28;20024;-43
2022/09/11 02:39:58;;;;;;;71.07;45.45;;;;;;;10.84;100.00;101704.59;5092251;28;20021;-44
2022/09/11 02:42:44;;;;;;;64.75;40.75;;;;;;;10.66;100.00;101702.13;5092763;28;20028;-44
2022/09/11 02:45:31;;;;;;;71.30;43.77;;;;;;;10.74;100.00;101697.28;5092615;28;20044;-44
2022/09/11 02:48:30;;;;;;;105.97;51.73;;;;;;;10.76;100.00;101698.25;5092275;28;20032;-43
2022/09/11 02:51:12;;;;;;;98.30;50.17;;;;;;;10.75;100.00;101706.78;5092931;28;20032;-45
2022/09/11 02:53:56;;;;;;;94.28;49.50;;;;;;;10.73;100.00;101708.44;5091904;28;20020;-47
2022/09/11 02:56:37;;;;;;;77.18;47.78;;;;;;;10.70;100.00;101708.28;5092701;28;20016;-46
2022/09/11 02:59:12;;;;;;;56.15;38.17;;;;;;;10.50;100.00;101708.31;5092675;28;20118;-44
2022/09/11 03:01:47;;;;;;;64.15;41.58;;;;;;;10.63;100.00;101712.31;5091876;28;20089;-46
2022/09/11 03:04:14;;;;;;;62.80;41.88;;;;;;;10.59;100.00;101714.69;5092395;28;20035;-42
2022/09/11 03:06:41;;;;;;;70.68;44.20;;;;;;;10.60;100.00;101714.78;5092843;28;20016;-47
2022/09/11 03:09:08;;;;;;;83.05;48.42;;;;;;;10.53;100.00;101716.19;5091883;28;20024;-46
2022/09/11 03:11:33;;;;;;;84.63;48.05;;;;;;;10.49;100.00;101711.69;5092625;28;20020;-44
2022/09/11 03:13:58;;;;;;;76.63;47.28;;;;;;;10.53;100.00;101723.94;5095882;28;20565;-45
2022/09/11 03:16:24;;;;;;;81.05;48.70;;;;;;;10.53;100.00;101721.34;5095966;28;20038;-44
2022/09/11 03:18:49;;;;;;;85.75;50.47;;;;;;;10.53;100.00;101729.09;5096275;28;20534;-44
2022/09/11 03:21:15;;;;;;;82.80;48.55;;;;;;;10.56;100.00;101727.44;5095770;28;20024;-46
2022/09/11 03:23:41;;;;;;;92.40;52.50;;;;;;;10.56;100.00;101720.63;5096315;28;20028;-43
2022/09/11 03:26:06;;;;;;;77.55;47.35;;;;;;;10.44;100.00;101718.34;5096093;28;20022;-43
2022/09/11 03:28:32;;;;;;;83.78;48.50;;;;;;;10.44;100.00;101714.91;5095438;28;20054;-43
2022/09/11 03:30:58;;;;;;;71.78;44.25;;;;;;;10.35;100.00;101721.44;5096171;28;20024;-43
2022/09/11 03:33:23;;;;;;;56.63;39.20;;;;;;;10.29;100.00;101717.63;5095809;28;20050;-43
2022/09/11 03:35:49;;;;;;;68.18;36.75;;;;;;;10.15;100.00;101722.19;5095433;28;20024;-43
2022/09/11 03:38:14;;;;;;;55.33;35.28;;;;;;;10.09;100.00;101719.34;5095969;28;20036;-44
2022/09/11 03:40:43;;;;;;;54.78;33.22;;;;;;;10.05;100.00;101720.88;5095876;28;20073;-43
2022/09/11 03:43:10;;;;;;;54.50;33.13;;;;;;;10.01;100.00;101724.13;5097673;28;20032;-48
2022/09/11 03:45:35;;;;;;;65.53;36.85;;;;;;;10.07;100.00;101727.00;5095543;28;20518;-43
2022/09/11 03:48:01;;;;;;;77.63;39.38;;;;;;;10.10;100.00;101729.69;5095546;28;20028;-43
2022/09/11 03:50:26;;;;;;;71.05;39.70;;;;;;;10.18;100.00;101730.03;5095105;28;20030;-45
2022/09/11 03:52:52;;;;;;;75.28;44.20;;;;;;;10.25;100.00;101736.34;5095843;28;20024;-43
2022/09/11 03:55:17;;;;;;;66.85;38.50;;;;;;;10.20;100.00;101736.16;5095521;28;20021;-43
2022/09/11 03:57:42;;;;;;;70.22;38.30;;;;;;;10.17;100.00;101729.19;5094733;28;20107;-46
2022/09/11 04:00:09;;;;;;;120.32;58.35;;;;;;;10.20;100.00;101726.72;5095443;28;20476;-46
2022/09/11 04:02:34;;;;;;;356.70;120.57;;;;;;;10.43;100.00;101728.59;5095417;28;20054;-45
2022/09/11 04:04:59;;;;;;;203.80;98.35;;;;;;;10.50;100.00;101725.50;5094982;28;20051;-46
2022/09/11 04:07:24;;;;;;;205.30;103.47;;;;;;;10.58;100.00;101729.28;5095335;28;20024;-43
2022/09/11 04:09:50;;;;;;;137.18;68.95;;;;;;;10.52;100.00;101732.47;5095527;28;20034;-43
2022/09/11 04:12:16;;;;;;;105.07;56.30;;;;;;;10.47;100.00;101728.81;5094508;28;20028;-44
2022/09/11 04:14:41;;;;;;;72.70;43.72;;;;;;;10.39;100.00;101735.31;5095297;28;20059;-44
2022/09/11 04:17:07;;;;;;;63.80;39.33;;;;;;;10.27;100.00;101732.16;5094395;28;20035;-44
2022/09/11 04:19:33;;;;;;;56.35;35.38;;;;;;;10.27;100.00;101735.63;5095062;28;20067;-47
2022/09/11 04:21:58;;;;;;;48.55;34.60;;;;;;;10.26;100.00;101730.41;5095429;28;20058;-43
2022/09/11 04:24:24;;;;;;;55.65;34.72;;;;;;;10.29;100.00;101720.22;5094179;28;20542;-48
2022/09/11 04:26:49;;;;;;;82.80;42.33;;;;;;;10.35;100.00;101728.22;5095216;28;20036;-44
2022/09/11 04:29:16;;;;;;;63.20;39.67;;;;;;;10.34;100.00;101726.44;5094844;28;20069;-44
2022/09/11 04:31:42;;;;;;;61.35;39.78;;;;;;;10.27;100.00;101730.47;5094233;28;20020;-44
2022/09/11 04:34:08;;;;;;;77.82;43.95;;;;;;;10.28;100.00;101719.34;5094797;28;20104;-46
2022/09/11 04:36:33;;;;;;;59.83;42.28;;;;;;;10.30;100.00;101722.88;5094915;28;20051;-45
2022/09/11 04:38:59;;;;;;;74.40;44.40;;;;;;;10.34;100.00;101723.88;5094032;28;20056;-46
2022/09/11 04:41:25;;;;;;;78.75;46.65;;;;;;;10.31;100.00;101728.91;5094642;28;20070;-43
2022/09/11 04:43:55;;;;;;;82.43;46.35;;;;;;;10.30;100.00;101740.03;5094635;28;20507;-44
2022/09/11 04:46:22;;;;;;;73.05;45.30;;;;;;;10.30;100.00;101733.19;5093664;28;20024;-47
2022/09/11 04:48:52;;;;;;;82.90;47.53;;;;;;;10.37;100.00;101731.78;5094849;28;20051;-42
2022/09/11 04:51:24;;;;;;;64.43;45.08;;;;;;;10.31;100.00;101739.22;5094391;28;20020;-46
2022/09/11 04:53:51;;;;;;;81.85;45.92;;;;;;;10.29;100.00;101740.81;5093919;28;20070;-43
2022/09/11 04:56:19;;;;;;;63.10;43.30;;;;;;;10.27;100.00;101748.50;5094248;28;20030;-44
2022/09/11 04:58:44;;;;;;;56.70;41.08;;;;;;;10.25;100.00;101738.94;5094345;28;20036;-43
2022/09/11 05:01:14;;;;;;;49.90;39.97;;;;;;;10.23;100.00;101745.72;5093376;28;20107;-47
2022/09/11 05:03:40;;;;;;;88.05;45.15;;;;;;;10.19;100.00;101740.41;5094354;28;20020;-43
2022/09/11 05:06:06;;;;;;;56.63;40.97;;;;;;;10.19;100.00;101736.97;5094184;28;20039;-43
2022/09/11 05:08:33;;;;;;;51.10;40.13;;;;;;;10.15;100.00;101735.94;5093316;28;20032;-45
2022/09/11 05:11:04;;;;;;;52.25;41.35;;;;;;;10.18;100.00;101738.66;5094238;28;20020;-42
2022/09/11 05:13:30;;;;;;;60.20;42.70;;;;;;;10.20;100.00;101742.19;5093216;28;20028;-44
2022/09/11 05:16:03;;;;;;;57.15;43.00;;;;;;;10.24;100.00;101753.53;5094291;28;20035;-44
2022/09/11 05:18:28;;;;;;;65.68;45.72;;;;;;;10.24;100.00;101752.63;5094000;28;20035;-43
2022/09/11 05:21:05;;;;;;;71.95;48.33;;;;;;;10.24;100.00;101760.34;5093300;28;20032;-45
2022/09/11 05:23:31;;;;;;;67.78;46.15;;;;;;;10.30;100.00;101758.97;5093954;28;20020;-44
2022/09/11 05:25:58;;;;;;;68.93;45.45;;;;;;;10.34;100.00;101765.09;5093854;28;20028;-45
2022/09/11 05:28:24;;;;;;;71.68;46.67;;;;;;;10.40;100.00;101770.56;5093031;28;20032;-43
2022/09/11 05:30:50;;;;;;;73.78;45.05;;;;;;;10.45;100.00;101769.09;5094012;28;20082;-44
2022/09/11 05:33:16;;;;;;;86.82;47.70;;;;;;;10.45;100.00;101774.25;5093555;28;20394;-43
2022/09/11 05:35:41;;;;;;;190.85;57.13;;;;;;;10.48;100.00;101776.06;5092528;28;20028;-43
2022/09/11 05:38:06;;;;;;;144.82;55.95;;;;;;;10.52;100.00;101788.28;5093445;28;20075;-44
2022/09/11 05:40:32;;;;;;;290.27;66.82;;;;;;;10.62;100.00;101792.16;5093438;28;20020;-43
2022/09/11 05:42:58;;;;;;;162.43;56.10;;;;;;;10.65;100.00;101794.88;5093132;28;20020;-44
2022/09/11 05:45:23;;;;;;;267.70;62.13;;;;;;;10.69;100.00;101794.19;5096191;28;20078;-43
2022/09/11 05:47:49;;;;;;;252.18;58.10;;;;;;;10.68;100.00;101803.63;5093571;28;20111;-45
2022/09/11 05:50:14;;;;;;;170.95;52.65;;;;;;;10.68;100.00;101800.19;5092617;28;20035;-43
2022/09/11 05:52:39;;;;;;;82.10;47.63;;;;;;;10.76;100.00;101805.69;5093333;28;20446;-44
2022/09/11 05:55:05;;;;;;;130.18;52.80;;;;;;;10.86;100.00;101807.84;5093133;28;20032;-46
2022/09/11 05:57:31;;;;;;;84.50;48.72;;;;;;;10.89;100.00;101807.09;5092565;28;20028;-45
2022/09/11 05:59:56;;;;;;;89.30;49.22;;;;;;;10.90;100.00;101808.84;5093561;28;20024;-43
2022/09/11 06:02:21;;;;;;;73.78;47.45;;;;;;;10.94;100.00;101818.50;5093274;28;20024;-43
2022/09/11 06:04:46;;;;;;;94.07;45.92;;;;;;;10.85;100.00;101821.56;5092630;28;20016;-50
2022/09/11 06:07:12;;;;;;;58.75;42.47;;;;;;;10.95;100.00;101817.66;5093164;28;20035;-43
2022/09/11 06:09:37;;;;;;;104.00;46.40;;;;;;;10.93;100.00;101819.31;5092725;28;20371;-43
2022/09/11 06:12:02;;;;;;;161.52;51.40;;;;;;;10.97;100.00;101831.50;5092784;28;20063;-47
2022/09/11 06:14:28;;;;;;;151.60;47.78;;;;;;;10.90;100.00;101829.47;5093233;28;20089;-43
2022/09/11 06:16:56;;;;;;;98.65;43.47;;;;;;;10.93;100.00;101834.78;5092294;28;20375;-45
2022/09/11 06:19:21;;;;;;;244.50;55.80;;;;;;;10.99;100.00;101840.22;5092893;28;20032;-42
2022/09/11 06:21:46;;;;;;;144.20;48.80;;;;;;;10.97;100.00;101827.22;5092952;28;20028;-46
2022/09/11 06:24:11;;;;;;;83.65;45.70;;;;;;;11.07;100.00;101832.81;5092050;28;20068;-45
2022/09/11 06:26:37;;;;;;;190.13;51.10;;;;;;;11.04;100.00;101843.88;5093085;28;20024;-43
2022/09/11 06:29:02;;;;;;;186.95;53.47;;;;;;;11.11;100.00;101845.91;5093005;28;20345;-45
2022/09/11 06:31:28;;;;;;;152.27;52.22;;;;;;;11.14;100.00;101851.22;5092386;28;20020;-45
2022/09/11 06:33:54;;;;;;;146.70;48.85;;;;;;;11.16;100.00;101846.09;5093098;28;20020;-43
2022/09/11 06:36:22;;;;;;;101.93;46.85;;;;;;;11.18;100.00;101847.94;5092588;28;20364;-44
2022/09/11 06:38:56;;;;;;;119.45;44.67;;;;;;;11.18;100.00;101858.25;5091900;28;20028;-48
2022/09/11 06:41:21;;;;;;;104.28;50.97;;;;;;;11.42;100.00;101856.66;5092810;28;20433;-45
2022/09/11 06:43:48;;;;;;;143.73;49.67;;;;;;;11.42;100.00;101854.09;5092768;28;20556;-44
2022/09/11 06:46:16;;;;;;;160.35;46.95;;;;;;;11.35;100.00;101858.09;5092124;28;20103;-43
2022/09/11 06:48:43;;;;;;;146.35;49.55;;;;;;;11.45;100.00;101856.78;5096379;28;20024;-44
2022/09/11 06:51:17;;;;;;;164.03;49.40;;;;;;;11.49;100.00;101863.81;5096790;28;20113;-45
2022/09/11 06:53:43;;;;;;;133.52;46.70;;;;;;;11.49;100.00;101869.88;5099810;28;20024;-43
2022/09/11 06:56:11;;;;;;;190.73;54.22;;;;;;;11.63;100.00;101867.00;5096647;28;20435;-43
2022/09/11 06:58:38;;;;;;;162.30;50.08;;;;;;;11.66;100.00;101861.97;5096725;28;20060;-44
2022/09/11 07:01:09;;;;;;;209.45;53.17;;;;;;;11.77;100.00;101871.03;5095825;28;20385;-44
2022/09/11 07:03:36;;;;;;;199.00;54.63;;;;;;;11.83;100.00;101865.25;5096670;28;20024;-43
2022/09/11 07:06:02;;;;;;;403.48;74.25;;;;;;;12.06;100.00;101867.88;5095592;28;20494;-43
2022/09/11 07:08:27;;;;;;;190.50;58.85;;;;;;;12.21;100.00;101868.50;5096655;28;20032;-43
2022/09/11 07:10:53;;;;;;;180.35;59.30;;;;;;;12.27;100.00;101873.91;5099305;28;20072;-44
2022/09/11 07:13:18;;;;;;;262.65;64.35;;;;;;;12.45;100.00;101873.75;5095570;28;20031;-45
2022/09/11 07:15:46;;;;;;;550.10;91.63;;;;;;;12.60;100.00;101868.28;5096577;28;20063;-46
2022/09/11 07:18:12;;;;;;;259.10;59.70;;;;;;;12.37;100.00;101870.00;5096093;28;20024;-42
2022/09/11 07:20:38;;;;;;;205.02;50.85;;;;;;;12.40;100.00;101864.94;5095429;28;20418;-44
2022/09/11 07:23:04;;;;;;;256.52;61.72;;;;;;;12.71;100.00;101863.50;5096377;28;20028;-45
2022/09/11 07:25:29;;;;;;;203.32;56.10;;;;;;;12.62;100.00;101865.75;5096263;28;20501;-44
2022/09/11 07:27:54;;;;;;;329.13;64.05;;;;;;;12.68;100.00;101858.22;5095517;28;20024;-42
2022/09/11 07:30:20;;;;;;;120.60;45.38;;;;;;;12.68;100.00;101863.41;5095988;28;20024;-44
2022/09/11 07:32:45;;;;;;;349.25;54.20;;;;;;;12.72;100.00;101865.28;5096095;28;20020;-43
2022/09/11 07:35:11;;;;;;;215.52;48.17;;;;;;;12.87;100.00;101871.84;5095035;28;20114;-45
2022/09/11 07:37:36;;;;;;;238.73;56.63;;;;;;;13.05;100.00;101866.44;5095981;28;20032;-45
2022/09/11 07:40:03;;;;;;;87.53;49.15;;;;;;;13.27;100.00;101868.06;5095953;28;20532;-44
2022/09/11 07:42:29;;;;;;;311.30;64.63;;;;;;;13.33;100.00;101863.13;5095297;28;20032;-45
2022/09/11 07:44:54;;;;;;;273.13;55.15;;;;;;;13.31;100.00;101870.84;5095596;28;20365;-45
2022/09/11 07:47:20;;;;;;;513.08;87.13;;;;;;;13.55;100.00;101864.75;5095597;28;20089;-46
2022/09/11 07:49:45;;;;;;;1466.65;186.60;;;;;;;13.95;100.00;101865.19;5094940;28;20024;-46
2022/09/11 07:52:11;;;;;;;1125.50;157.60;;;;;;;13.93;100.00;101866.84;5095788;28;20016;-45
2022/09/11 07:54:36;;;;;;;449.17;79.47;;;;;;;13.82;100.00;101866.50;5095776;28;20501;-44
2022/09/11 07:57:02;;;;;;;191.98;52.28;;;;;;;13.86;100.00;101872.69;5095499;28;20032;-45
2022/09/11 07:59:27;;;;;;;280.42;58.85;;;;;;;13.91;100.00;101868.53;5103180;28;20114;-46
2022/09/11 08:01:54;;;;;;;653.10;94.43;;;;;;;13.91;100.00;101873.72;5111207;28;20467;-45
2022/09/11 08:04:20;;;;;;;1092.63;149.13;;;;;;;14.21;100.00;101878.09;5114786;28;20019;-44
2022/09/11 08:06:45;;;;;;;155.32;50.00;;;;;;;14.12;100.00;101879.53;5116082;28;20027;-44
2022/09/11 08:09:13;;;;;;;515.25;84.78;;;;;;;14.35;100.00;101882.00;5096520;27;20460;-43
2022/09/11 08:11:43;;;;;;;975.72;131.13;;;;;;;14.68;100.00;101886.47;5095384;28;20024;-44
2022/09/11 08:14:12;;;;;;;1103.18;138.95;;;;;;;14.98;100.00;101893.38;5094671;28;20031;-42
2022/09/11 08:16:38;;;;;;;1714.25;224.38;;;;;;;15.36;100.00;101890.94;5094012;28;20096;-45
2022/09/11 08:19:04;;;;;;;472.73;92.70;;;;;;;15.28;100.00;101895.91;5112791;28;20035;-44
2022/09/11 08:21:29;;;;;;;169.38;56.90;;;;;;;15.33;100.00;101901.25;5113541;28;20047;-44
2022/09/11 08:23:54;;;;;;;96.80;45.05;;;;;;;15.14;100.00;101898.16;5113791;28;20032;-44
2022/09/11 08:26:22;;;;;;;315.65;68.20;;;;;;;15.41;100.00;101902.31;5097820;28;20055;-45
2022/09/11 08:28:50;;;;;;;192.20;59.20;;;;;;;15.52;100.00;101905.22;5101440;28;20024;-47
2022/09/11 08:31:18;;;;;;;249.27;58.50;;;;;;;15.41;100.00;101902.31;5107200;28;20440;-45
2022/09/11 08:33:44;;;;;;;196.10;51.97;;;;;;;15.26;100.00;101901.91;5100591;28;20052;-45
2022/09/11 08:36:12;;;;;;;153.85;53.05;;;;;;;15.58;100.00;101909.69;5092578;28;20423;-44
2022/09/11 08:38:37;;;;;;;213.05;60.10;;;;;;;15.54;100.00;101908.72;5109002;28;20489;-43
2022/09/11 08:41:30;;;;;;;90.68;47.45;;;;;;;15.52;100.00;101917.31;5104996;28;20039;-43
2022/09/11 08:44:08;;;;;;;66.72;44.22;;;;;;;15.53;100.00;101916.47;5108161;28;20040;-43
2022/09/11 08:46:35;;;;;;;;;;;;;;;15.68;100.00;101921.22;5114170;28;20104;-42
2022/09/11 08:49:39;;;;;;;66.22;44.70;;;;;;;15.54;100.00;101919.13;5103950;28;19912;-45
2022/09/11 08:52:05;;;;;;;69.28;46.97;;;;;;;15.62;100.00;101920.22;5085366;28;20386;-43
2022/09/11 08:54:33;;;;;;;77.70;50.72;;;;;;;15.72;100.00;101926.50;5103755;28;20522;-44
2022/09/11 08:57:26;;;;;;;83.90;52.88;;;;;;;16.01;100.00;101921.22;5100833;28;20027;-48
2022/09/11 09:00:04;;;;;;;68.78;47.70;;;;;;;15.92;100.00;101915.75;5114124;28;20032;-47
2022/09/11 09:02:55;;;;;;;59.67;43.15;;;;;;;15.99;100.00;101915.09;5114546;28;20037;-46
2022/09/11 09:05:54;;;;;;;65.75;45.13;;;;;;;16.26;100.00;101916.59;5114579;27;20031;-47
2022/09/11 09:08:40;;;;;;;59.78;43.60;;;;;;;16.28;100.00;101909.69;5114519;28;20028;-44
2022/09/11 09:11:09;;;;;;;62.27;45.33;;;;;;;16.75;100.00;101917.66;5113639;28;20546;-45
2022/09/11 09:13:56;;;;;;;58.83;43.03;;;;;;;17.05;100.00;101926.13;5113784;28;20039;-44
2022/09/11 09:16:42;;;;;;;52.85;40.47;;;;;;;17.38;100.00;101928.50;5114375;28;20023;-45
2022/09/11 09:19:28;;;;;;;49.13;37.50;;;;;;;17.83;100.00;101931.00;5114299;28;20028;-46
2022/09/11 09:21:58;;;;;;;46.88;35.47;;;;;;;18.19;100.00;101922.06;5112933;28;20030;-42
2022/09/11 09:24:28;;;;;;;41.72;33.58;;;;;;;18.41;100.00;101926.75;5093472;28;20043;-46
2022/09/11 09:26:55;;;;;;;41.53;32.95;;;;;;;19.22;98.19;101936.53;5093312;28;20140;-44
2022/09/11 09:29:24;;;;;;;41.22;32.13;;;;;;;19.16;94.89;101936.44;5093653;28;20070;-47
2022/09/11 09:31:53;;;;;;;38.25;30.20;;;;;;;19.28;91.35;101933.09;5093829;28;20067;-47
2022/09/11 09:34:21;;;;;;;38.55;29.65;;;;;;;19.03;90.91;101939.75;5092987;28;20031;-46
2022/09/11 09:37:00;;;;;;;35.65;29.42;;;;;;;19.14;91.55;101932.94;5093814;28;20032;-45
2022/09/11 09:39:26;;;;;;;30.88;23.50;;;;;;;19.19;84.55;101930.38;5096393;28;20124;-48
2022/09/11 09:42:32;;;;;;;29.73;25.60;;;;;;;19.68;89.18;101941.31;5092930;28;20082;-46
2022/09/11 09:45:25;;;;;;;34.17;26.58;;;;;;;19.94;89.26;101943.34;5069764;28;20061;-44
2022/09/11 09:47:50;;;;;;;31.27;26.98;;;;;;;19.97;82.03;101939.84;5092933;28;20055;-44
2022/09/11 09:50:16;;;;;;;32.65;25.88;;;;;;;20.75;80.39;101941.25;5093391;28;20056;-45
2022/09/11 09:52:41;;;;;;;32.38;24.98;;;;;;;20.60;77.95;101942.91;5093444;28;20496;-45
2022/09/11 09:55:14;;;;;;;27.73;24.52;;;;;;;21.31;76.83;101945.81;5095573;28;20050;-47
2022/09/11 09:57:39;;;;;;;25.13;19.33;;;;;;;21.79;71.52;101939.81;5093232;28;20486;-49
2022/09/11 10:00:08;;;;;;;21.80;18.98;;;;;;;21.90;70.99;101945.03;5093347;28;20032;-45
2022/09/11 10:02:41;;;;;;;18.42;16.00;;;;;;;22.01;68.79;101946.81;5092556;28;20023;-45
2022/09/11 10:05:15;;;;;;;24.65;20.95;;;;;;;21.71;71.74;101945.06;5093128;28;20520;-44
2022/09/11 10:07:49;;;;;;;22.35;19.95;;;;;;;21.47;72.97;101940.59;5093351;28;20036;-49
2022/09/11 10:10:30;;;;;;;21.52;19.13;;;;;;;21.50;75.19;101943.25;5092295;28;20552;-44
2022/09/11 10:13:01;;;;;;;18.40;16.50;;;;;;;20.98;70.92;101947.50;5093183;28;20027;-46
2022/09/11 10:15:28;;;;;;;17.83;15.32;;;;;;;21.28;71.45;101948.44;5093010;28;20431;-47
2022/09/11 10:18:19;;;;;;;17.55;15.65;;;;;;;22.16;68.70;101948.53;5092551;28;20081;-45
2022/09/11 10:20:44;;;;;;;18.77;16.35;;;;;;;22.70;66.15;101950.22;5092893;28;20035;-44
2022/09/11 10:23:26;;;;;;;20.83;18.27;;;;;;;22.46;70.27;101938.00;5092040;28;20138;-48
2022/09/11 10:25:52;;;;;;;24.45;21.17;;;;;;;22.11;67.93;101939.78;5092318;28;20032;-44
2022/09/11 10:28:29;;;;;;;23.20;19.77;;;;;;;21.59;68.57;101945.91;5096173;28;20028;-45
2022/09/11 10:30:59;;;;;;;;;;;;;;;22.10;75.36;101945.03;5092841;28;20034;-45
2022/09/11 10:33:27;;;;;;;23.45;20.90;;;;;;;21.03;70.77;101942.25;5092754;28;19912;-48
2022/09/11 10:35:54;;;;;;;23.88;20.25;;;;;;;20.75;70.92;101943.88;5093039;28;20020;-48
2022/09/11 10:38:32;;;;;;;21.90;19.35;;;;;;;20.51;72.25;101937.63;5091813;28;20047;-47
2022/09/11 10:41:12;;;;;;;21.88;19.45;;;;;;;20.39;73.10;101934.06;5093124;28;20532;-47
2022/09/11 10:44:02;;;;;;;20.50;18.30;;;;;;;20.01;76.60;101934.69;5092688;28;20048;-50
2022/09/11 10:46:31;;;;;;;17.95;15.15;;;;;;;20.51;69.97;101938.47;5092884;28;20482;-45
2022/09/11 10:49:05;;;;;;;14.27;12.07;;;;;;;21.41;65.52;101935.34;5092820;28;20117;-46
2022/09/11 10:51:34;;;;;;;13.20;10.38;;;;;;;21.60;63.18;101939.81;5092205;28;20024;-46
2022/09/11 10:54:30;;;;;;;11.48;8.50;;;;;;;21.25;66.77;101937.94;5092859;28;20051;-48
2022/09/11 10:56:56;;;;;;;10.65;9.25;;;;;;;20.74;66.11;101943.00;5092676;28;20028;-44
2022/09/11 10:59:30;;;;;;;11.38;9.70;;;;;;;20.38;65.81;101944.53;5091750;28;20173;-48
2022/09/11 11:01:55;;;;;;;11.25;9.60;;;;;;;20.14;68.35;101937.38;5092912;28;20028;-45
2022/09/11 11:04:21;;;;;;;13.82;10.45;;;;;;;20.20;68.51;101934.81;5092614;28;20028;-48
2022/09/11 11:07:21;;;;;;;16.08;13.10;;;;;;;20.14;71.20;101940.88;5092109;28;20028;-47
2022/09/11 11:10:01;;;;;;;15.05;12.07;;;;;;;20.60;69.48;101935.03;5092677;28;20040;-45
2022/09/11 11:12:49;;;;;;;12.38;11.05;;;;;;;22.40;67.07;101935.41;5091642;28;20021;-44
2022/09/11 11:15:42;;;;;;;12.93;10.40;;;;;;;23.88;60.65;101928.50;5092508;28;20107;-45